Orbital elements of COSMOS 970 DEB
| Launched | 20 December 1977 |
| Flight ended | – |
| Launch site | Tyuratam Missile and Space Center, Kazakhstan (Also known as Baikonur Cosmodrome) |
| Owner | Commonwealth of Independent States (former USSR) |
| NORAD ID | 10578 |
| Date fetched |
Epoch osculation |
Inc. [°] |
Ecc. | RA asc node [hr] |
Arg Peri. [°] |
Mean anom [°] |
Mean motion [rev/day] |
Abs. mag |
| Date fetched |
Epoch osculation |
Inc. [°] |
Ecc. | RA asc node [hr] |
Arg Peri. [°] |
Mean anom [°] |
Mean motion [rev/day] |
Abs. mag |
| 2026 May 03 17:57 | 2026 Apr 30 07:41:15 | 65.7694 | 0.01260 | 5.7985 | 60.3278 | 91.7678 | 13.68599 | – |
| 2026 May 02 17:57 | 2026 Apr 30 07:41:15 | 65.7694 | 0.01260 | 5.7985 | 60.3278 | 91.7678 | 13.68599 | – |
| 2026 May 01 17:56 | 2026 Apr 30 07:41:15 | 65.7694 | 0.01260 | 5.7985 | 60.3278 | 91.7678 | 13.68599 | – |
| 2026 Apr 30 17:56 | 2026 Apr 30 07:41:15 | 65.7694 | 0.01260 | 5.7985 | 60.3278 | 91.7678 | 13.68599 | – |
| 2026 Apr 29 17:57 | 2026 Apr 24 09:37:01 | 65.7684 | 0.01257 | 6.7655 | 63.3255 | 91.7678 | 13.68599 | – |
| 2026 Apr 28 17:56 | 2026 Apr 24 09:37:01 | 65.7684 | 0.01257 | 6.7655 | 63.3255 | 91.7678 | 13.68599 | – |
| 2026 Apr 27 17:58 | 2026 Apr 24 09:37:01 | 65.7684 | 0.01257 | 6.7655 | 63.3255 | 91.7678 | 13.68599 | – |
| 2026 Apr 26 17:58 | 2026 Apr 24 09:37:01 | 65.7684 | 0.01257 | 6.7655 | 63.3255 | 91.7678 | 13.68599 | – |
| 2026 Apr 25 17:58 | 2026 Apr 24 09:37:01 | 65.7684 | 0.01257 | 6.7655 | 63.3255 | 91.7678 | 13.68599 | – |
| 2026 Apr 24 17:59 | 2026 Apr 24 09:37:01 | 65.7684 | 0.01257 | 6.7655 | 63.3255 | 91.7678 | 13.68599 | – |
| 2026 Apr 23 17:57 | 2026 Apr 18 23:14:03 | 65.7682 | 0.01254 | 7.6531 | 66.0979 | 91.7678 | 13.68599 | – |
| 2026 Apr 22 17:57 | 2026 Apr 18 23:14:03 | 65.7682 | 0.01254 | 7.6531 | 66.0979 | 91.7678 | 13.68599 | – |
| 2026 Apr 21 17:57 | 2026 Apr 18 23:14:03 | 65.7682 | 0.01254 | 7.6531 | 66.0979 | 91.7678 | 13.68599 | – |
| 2026 Apr 20 17:57 | 2026 Apr 18 23:14:03 | 65.7682 | 0.01254 | 7.6531 | 66.0979 | 91.7678 | 13.68599 | – |
| 2026 Apr 19 17:58 | 2026 Apr 18 23:14:03 | 65.7682 | 0.01254 | 7.6531 | 66.0979 | 91.7678 | 13.68599 | – |
| 2026 Apr 18 17:56 | 2026 Apr 13 01:11:22 | 65.7682 | 0.01252 | 8.6200 | 69.1441 | 91.7678 | 13.68599 | – |
| 2026 Apr 16 17:57 | 2026 Apr 13 01:11:22 | 65.7682 | 0.01252 | 8.6200 | 69.1441 | 91.7678 | 13.68599 | – |
| 2026 Apr 14 17:57 | 2026 Apr 13 01:11:22 | 65.7682 | 0.01252 | 8.6200 | 69.1441 | 91.7678 | 13.68599 | – |
| 2026 Apr 13 17:57 | 2026 Apr 13 01:11:22 | 65.7682 | 0.01252 | 8.6200 | 69.1441 | 91.7678 | 13.68599 | – |
| 2026 Apr 12 17:57 | 2026 Apr 08 13:06:24 | 65.7689 | 0.01251 | 9.3557 | 71.4693 | 91.7678 | 13.68599 | – |
| 2026 Apr 11 17:57 | 2026 Apr 08 13:06:24 | 65.7689 | 0.01251 | 9.3557 | 71.4693 | 91.7678 | 13.68599 | – |
| 2026 Apr 10 17:58 | 2026 Apr 08 13:06:24 | 65.7689 | 0.01251 | 9.3557 | 71.4693 | 91.7678 | 13.68599 | – |
| 2026 Apr 09 18:01 | 2026 Apr 08 13:06:24 | 65.7689 | 0.01251 | 9.3557 | 71.4693 | 91.7678 | 13.68599 | – |
| 2026 Apr 08 17:57 | 2026 Apr 08 13:06:24 | 65.7689 | 0.01251 | 9.3557 | 71.4693 | 91.7678 | 13.68599 | – |
| 2026 Apr 07 17:57 | 2026 Apr 02 05:49:29 | 65.7697 | 0.01251 | 10.3854 | 74.7318 | 91.7678 | 13.68599 | – |
| 2026 Apr 06 17:57 | 2026 Apr 02 05:49:29 | 65.7697 | 0.01251 | 10.3854 | 74.7318 | 91.7678 | 13.68599 | – |